sensor_id;sensor_type;location;lat;lon;timestamp;P1;durP1;ratioP1;P2;durP2;ratioP2
32918;SDS011;19280;42.646;21.150;2022-12-18T00:00:03;12.75;;;7.40;;
32918;SDS011;19280;42.646;21.150;2022-12-18T00:02:29;14.00;;;7.60;;
32918;SDS011;19280;42.646;21.150;2022-12-18T00:04:56;17.67;;;7.88;;
32918;SDS011;19280;42.646;21.150;2022-12-18T00:07:22;15.60;;;6.80;;
32918;SDS011;19280;42.646;21.150;2022-12-18T00:09:48;15.70;;;5.38;;
32918;SDS011;19280;42.646;21.150;2022-12-18T00:12:14;12.82;;;6.57;;
32918;SDS011;19280;42.646;21.150;2022-12-18T00:14:40;10.80;;;6.45;;
32918;SDS011;19280;42.646;21.150;2022-12-18T00:17:06;9.57;;;5.57;;
32918;SDS011;19280;42.646;21.150;2022-12-18T00:19:32;10.75;;;6.07;;
32918;SDS011;19280;42.646;21.150;2022-12-18T00:21:58;11.90;;;6.82;;
32918;SDS011;19280;42.646;21.150;2022-12-18T00:24:24;10.50;;;7.05;;
32918;SDS011;19280;42.646;21.150;2022-12-18T00:26:51;17.00;;;7.50;;
32918;SDS011;19280;42.646;21.150;2022-12-18T00:29:17;15.20;;;9.45;;
32918;SDS011;19280;42.646;21.150;2022-12-18T00:31:43;12.57;;;7.55;;
32918;SDS011;19280;42.646;21.150;2022-12-18T00:34:10;13.05;;;6.57;;
32918;SDS011;19280;42.646;21.150;2022-12-18T00:36:37;12.02;;;6.93;;
32918;SDS011;19280;42.646;21.150;2022-12-18T00:39:03;10.20;;;7.03;;
32918;SDS011;19280;42.646;21.150;2022-12-18T00:41:30;9.90;;;6.88;;
32918;SDS011;19280;42.646;21.150;2022-12-18T00:44:15;13.07;;;6.60;;
32918;SDS011;19280;42.646;21.150;2022-12-18T00:46:43;12.07;;;7.40;;
32918;SDS011;19280;42.646;21.150;2022-12-18T00:49:09;12.77;;;7.30;;
32918;SDS011;19280;42.646;21.150;2022-12-18T00:51:35;15.00;;;6.85;;
32918;SDS011;19280;42.646;21.150;2022-12-18T00:54:01;11.00;;;5.97;;
32918;SDS011;19280;42.646;21.150;2022-12-18T00:56:27;11.68;;;7.18;;
32918;SDS011;19280;42.646;21.150;2022-12-18T00:58:54;11.88;;;6.70;;
32918;SDS011;19280;42.646;21.150;2022-12-18T01:01:20;15.98;;;7.22;;
32918;SDS011;19280;42.646;21.150;2022-12-18T01:03:46;9.38;;;6.00;;
32918;SDS011;19280;42.646;21.150;2022-12-18T01:06:13;11.45;;;5.97;;
32918;SDS011;19280;42.646;21.150;2022-12-18T01:08:40;10.02;;;6.15;;
32918;SDS011;19280;42.646;21.150;2022-12-18T01:11:07;11.27;;;6.72;;
32918;SDS011;19280;42.646;21.150;2022-12-18T01:13:33;10.55;;;6.97;;
32918;SDS011;19280;42.646;21.150;2022-12-18T01:15:59;10.95;;;6.45;;
32918;SDS011;19280;42.646;21.150;2022-12-18T01:18:25;12.55;;;7.03;;
32918;SDS011;19280;42.646;21.150;2022-12-18T01:20:51;14.77;;;8.23;;
32918;SDS011;19280;42.646;21.150;2022-12-18T01:23:17;14.60;;;6.80;;
32918;SDS011;19280;42.646;21.150;2022-12-18T01:25:44;14.10;;;8.45;;
32918;SDS011;19280;42.646;21.150;2022-12-18T01:28:10;14.45;;;9.13;;
32918;SDS011;19280;42.646;21.150;2022-12-18T01:30:36;14.40;;;8.65;;
32918;SDS011;19280;42.646;21.150;2022-12-18T01:33:03;14.43;;;8.82;;
32918;SDS011;19280;42.646;21.150;2022-12-18T01:35:30;13.75;;;8.00;;
32918;SDS011;19280;42.646;21.150;2022-12-18T01:37:56;14.68;;;8.60;;
32918;SDS011;19280;42.646;21.150;2022-12-18T01:40:22;14.00;;;8.10;;
32918;SDS011;19280;42.646;21.150;2022-12-18T01:42:50;11.82;;;7.03;;
32918;SDS011;19280;42.646;21.150;2022-12-18T01:52:48;17.38;;;10.30;;
32918;SDS011;19280;42.646;21.150;2022-12-18T01:55:16;13.85;;;9.25;;
32918;SDS011;19280;42.646;21.150;2022-12-18T01:57:44;19.65;;;9.85;;
32918;SDS011;19280;42.646;21.150;2022-12-18T02:00:12;18.23;;;10.43;;
32918;SDS011;19280;42.646;21.150;2022-12-18T02:02:40;17.60;;;10.40;;
32918;SDS011;19280;42.646;21.150;2022-12-18T02:05:07;20.27;;;10.27;;
32918;SDS011;19280;42.646;21.150;2022-12-18T02:27:39;13.50;;;7.50;;
32918;SDS011;19280;42.646;21.150;2022-12-18T02:30:06;20.30;;;8.65;;
32918;SDS011;19280;42.646;21.150;2022-12-18T02:32:43;17.83;;;10.65;;
32918;SDS011;19280;42.646;21.150;2022-12-18T02:35:13;19.70;;;12.77;;
32918;SDS011;19280;42.646;21.150;2022-12-18T02:37:40;24.55;;;13.82;;
32918;SDS011;19280;42.646;21.150;2022-12-18T02:40:07;28.88;;;14.75;;
32918;SDS011;19280;42.646;21.150;2022-12-18T02:42:33;25.30;;;14.35;;
32918;SDS011;19280;42.646;21.150;2022-12-18T02:44:59;25.10;;;14.88;;
32918;SDS011;19280;42.646;21.150;2022-12-18T02:47:28;29.90;;;15.57;;
32918;SDS011;19280;42.646;21.150;2022-12-18T02:50:10;28.50;;;15.93;;
32918;SDS011;19280;42.646;21.150;2022-12-18T02:57:51;29.13;;;15.55;;
32918;SDS011;19280;42.646;21.150;2022-12-18T03:00:20;22.80;;;13.20;;
32918;SDS011;19280;42.646;21.150;2022-12-18T03:05:17;23.80;;;13.32;;
32918;SDS011;19280;42.646;21.150;2022-12-18T03:07:47;21.40;;;11.38;;
32918;SDS011;19280;42.646;21.150;2022-12-18T03:10:16;24.17;;;13.70;;
32918;SDS011;19280;42.646;21.150;2022-12-18T03:12:44;28.95;;;16.20;;
32918;SDS011;19280;42.646;21.150;2022-12-18T03:15:13;24.83;;;13.95;;
32918;SDS011;19280;42.646;21.150;2022-12-18T03:17:41;28.45;;;15.77;;
32918;SDS011;19280;42.646;21.150;2022-12-18T03:20:10;24.38;;;13.32;;
32918;SDS011;19280;42.646;21.150;2022-12-18T03:22:38;25.83;;;14.68;;
32918;SDS011;19280;42.646;21.150;2022-12-18T03:25:05;26.48;;;13.90;;
32918;SDS011;19280;42.646;21.150;2022-12-18T03:27:32;22.85;;;13.13;;
32918;SDS011;19280;42.646;21.150;2022-12-18T03:30:03;24.23;;;13.43;;
32918;SDS011;19280;42.646;21.150;2022-12-18T03:32:33;22.38;;;12.82;;
32918;SDS011;19280;42.646;21.150;2022-12-18T03:35:03;15.48;;;9.65;;
32918;SDS011;19280;42.646;21.150;2022-12-18T03:37:30;21.05;;;11.77;;
32918;SDS011;19280;42.646;21.150;2022-12-18T03:39:56;25.52;;;13.75;;
32918;SDS011;19280;42.646;21.150;2022-12-18T03:42:27;26.73;;;13.93;;
32918;SDS011;19280;42.646;21.150;2022-12-18T03:47:45;22.20;;;12.48;;
32918;SDS011;19280;42.646;21.150;2022-12-18T03:55:12;20.05;;;11.23;;
32918;SDS011;19280;42.646;21.150;2022-12-18T03:57:38;27.02;;;15.75;;
32918;SDS011;19280;42.646;21.150;2022-12-18T04:02:31;25.35;;;13.23;;
32918;SDS011;19280;42.646;21.150;2022-12-18T04:04:58;26.30;;;14.80;;
32918;SDS011;19280;42.646;21.150;2022-12-18T04:07:26;27.45;;;15.13;;
32918;SDS011;19280;42.646;21.150;2022-12-18T04:09:53;26.25;;;13.60;;
32918;SDS011;19280;42.646;21.150;2022-12-18T04:12:23;26.13;;;14.70;;
32918;SDS011;19280;42.646;21.150;2022-12-18T04:14:51;25.20;;;15.25;;
32918;SDS011;19280;42.646;21.150;2022-12-18T04:17:17;26.35;;;15.60;;
32918;SDS011;19280;42.646;21.150;2022-12-18T04:19:43;28.13;;;15.82;;
32918;SDS011;19280;42.646;21.150;2022-12-18T04:22:10;27.83;;;16.38;;
32918;SDS011;19280;42.646;21.150;2022-12-18T04:24:36;26.05;;;15.27;;
32918;SDS011;19280;42.646;21.150;2022-12-18T04:27:02;28.00;;;15.68;;
32918;SDS011;19280;42.646;21.150;2022-12-18T04:29:29;28.55;;;14.55;;
32918;SDS011;19280;42.646;21.150;2022-12-18T04:31:55;26.20;;;12.70;;
32918;SDS011;19280;42.646;21.150;2022-12-18T04:34:21;27.60;;;15.48;;
32918;SDS011;19280;42.646;21.150;2022-12-18T04:36:47;31.52;;;16.10;;
32918;SDS011;19280;42.646;21.150;2022-12-18T04:39:14;30.25;;;16.45;;
32918;SDS011;19280;42.646;21.150;2022-12-18T04:41:40;31.60;;;17.90;;
32918;SDS011;19280;42.646;21.150;2022-12-18T04:44:06;29.58;;;16.95;;
32918;SDS011;19280;42.646;21.150;2022-12-18T04:46:32;34.88;;;18.70;;
32918;SDS011;19280;42.646;21.150;2022-12-18T04:48:58;31.45;;;16.08;;
32918;SDS011;19280;42.646;21.150;2022-12-18T04:51:24;28.20;;;15.65;;
32918;SDS011;19280;42.646;21.150;2022-12-18T04:53:50;32.85;;;16.60;;
32918;SDS011;19280;42.646;21.150;2022-12-18T04:56:17;31.45;;;15.93;;
32918;SDS011;19280;42.646;21.150;2022-12-18T04:58:43;32.75;;;17.95;;
32918;SDS011;19280;42.646;21.150;2022-12-18T05:01:10;30.67;;;16.85;;
32918;SDS011;19280;42.646;21.150;2022-12-18T05:03:37;28.92;;;16.80;;
32918;SDS011;19280;42.646;21.150;2022-12-18T05:06:03;33.15;;;18.92;;
32918;SDS011;19280;42.646;21.150;2022-12-18T05:08:30;34.85;;;19.50;;
32918;SDS011;19280;42.646;21.150;2022-12-18T05:11:06;35.60;;;18.98;;
32918;SDS011;19280;42.646;21.150;2022-12-18T05:13:33;30.15;;;16.55;;
32918;SDS011;19280;42.646;21.150;2022-12-18T05:15:59;30.83;;;18.10;;
32918;SDS011;19280;42.646;21.150;2022-12-18T05:18:26;31.80;;;17.73;;
32918;SDS011;19280;42.646;21.150;2022-12-18T05:20:53;32.70;;;17.65;;
32918;SDS011;19280;42.646;21.150;2022-12-18T05:23:19;28.35;;;14.60;;
32918;SDS011;19280;42.646;21.150;2022-12-18T05:25:52;30.88;;;16.52;;
32918;SDS011;19280;42.646;21.150;2022-12-18T05:28:19;32.30;;;17.02;;
32918;SDS011;19280;42.646;21.150;2022-12-18T05:30:51;26.77;;;15.82;;
32918;SDS011;19280;42.646;21.150;2022-12-18T05:35:43;29.15;;;15.93;;
32918;SDS011;19280;42.646;21.150;2022-12-18T05:38:09;24.17;;;14.40;;
32918;SDS011;19280;42.646;21.150;2022-12-18T05:40:36;23.73;;;13.95;;
32918;SDS011;19280;42.646;21.150;2022-12-18T05:43:02;24.67;;;14.00;;
32918;SDS011;19280;42.646;21.150;2022-12-18T05:45:28;27.42;;;15.02;;
32918;SDS011;19280;42.646;21.150;2022-12-18T05:47:54;27.33;;;14.80;;
32918;SDS011;19280;42.646;21.150;2022-12-18T05:50:20;24.05;;;13.43;;
32918;SDS011;19280;42.646;21.150;2022-12-18T05:52:46;26.55;;;14.63;;
32918;SDS011;19280;42.646;21.150;2022-12-18T05:55:12;25.73;;;14.00;;
32918;SDS011;19280;42.646;21.150;2022-12-18T05:57:38;23.80;;;13.73;;
32918;SDS011;19280;42.646;21.150;2022-12-18T06:00:04;22.33;;;13.88;;
32918;SDS011;19280;42.646;21.150;2022-12-18T06:02:31;26.35;;;14.95;;
32918;SDS011;19280;42.646;21.150;2022-12-18T06:04:57;26.42;;;14.20;;
32918;SDS011;19280;42.646;21.150;2022-12-18T06:07:23;25.27;;;14.02;;
32918;SDS011;19280;42.646;21.150;2022-12-18T06:09:50;25.20;;;13.23;;
32918;SDS011;19280;42.646;21.150;2022-12-18T06:12:16;22.90;;;12.70;;
32918;SDS011;19280;42.646;21.150;2022-12-18T06:14:42;23.52;;;13.43;;
32918;SDS011;19280;42.646;21.150;2022-12-18T06:17:08;26.75;;;13.48;;
32918;SDS011;19280;42.646;21.150;2022-12-18T06:19:34;23.58;;;13.73;;
32918;SDS011;19280;42.646;21.150;2022-12-18T06:22:00;24.90;;;13.63;;
32918;SDS011;19280;42.646;21.150;2022-12-18T06:24:26;24.02;;;13.63;;
32918;SDS011;19280;42.646;21.150;2022-12-18T06:26:52;24.20;;;14.48;;
32918;SDS011;19280;42.646;21.150;2022-12-18T06:29:19;21.75;;;13.10;;
32918;SDS011;19280;42.646;21.150;2022-12-18T06:31:45;23.52;;;12.73;;
32918;SDS011;19280;42.646;21.150;2022-12-18T06:34:11;25.70;;;13.23;;
32918;SDS011;19280;42.646;21.150;2022-12-18T06:36:37;21.65;;;12.40;;
32918;SDS011;19280;42.646;21.150;2022-12-18T06:39:03;21.00;;;12.55;;
32918;SDS011;19280;42.646;21.150;2022-12-18T06:41:29;26.25;;;14.52;;
32918;SDS011;19280;42.646;21.150;2022-12-18T06:43:55;31.00;;;15.80;;
32918;SDS011;19280;42.646;21.150;2022-12-18T06:46:23;26.88;;;15.05;;
32918;SDS011;19280;42.646;21.150;2022-12-18T06:48:49;23.30;;;12.38;;
32918;SDS011;19280;42.646;21.150;2022-12-18T06:51:16;23.77;;;11.73;;
32918;SDS011;19280;42.646;21.150;2022-12-18T06:53:43;18.60;;;10.68;;
32918;SDS011;19280;42.646;21.150;2022-12-18T06:56:09;21.15;;;11.35;;
32918;SDS011;19280;42.646;21.150;2022-12-18T06:58:35;18.65;;;8.77;;
32918;SDS011;19280;42.646;21.150;2022-12-18T07:01:02;16.63;;;9.63;;
32918;SDS011;19280;42.646;21.150;2022-12-18T07:03:28;19.17;;;11.15;;
32918;SDS011;19280;42.646;21.150;2022-12-18T07:05:54;19.67;;;11.48;;
32918;SDS011;19280;42.646;21.150;2022-12-18T07:08:20;21.98;;;11.95;;
32918;SDS011;19280;42.646;21.150;2022-12-18T07:10:46;20.80;;;12.27;;
32918;SDS011;19280;42.646;21.150;2022-12-18T07:13:14;22.52;;;12.30;;
32918;SDS011;19280;42.646;21.150;2022-12-18T07:15:40;22.95;;;12.88;;
32918;SDS011;19280;42.646;21.150;2022-12-18T07:18:06;19.25;;;11.82;;
32918;SDS011;19280;42.646;21.150;2022-12-18T07:20:32;21.02;;;11.27;;
32918;SDS011;19280;42.646;21.150;2022-12-18T07:22:59;20.73;;;9.98;;
32918;SDS011;19280;42.646;21.150;2022-12-18T07:25:27;18.73;;;10.88;;
32918;SDS011;19280;42.646;21.150;2022-12-18T07:27:53;22.13;;;12.75;;
32918;SDS011;19280;42.646;21.150;2022-12-18T07:30:20;23.65;;;14.10;;
32918;SDS011;19280;42.646;21.150;2022-12-18T07:32:46;26.10;;;14.32;;
32918;SDS011;19280;42.646;21.150;2022-12-18T07:35:12;24.90;;;14.18;;
32918;SDS011;19280;42.646;21.150;2022-12-18T07:37:38;22.67;;;12.52;;
32918;SDS011;19280;42.646;21.150;2022-12-18T07:40:04;20.48;;;12.20;;
32918;SDS011;19280;42.646;21.150;2022-12-18T07:42:31;22.63;;;11.75;;
32918;SDS011;19280;42.646;21.150;2022-12-18T07:45:00;17.85;;;10.23;;
32918;SDS011;19280;42.646;21.150;2022-12-18T07:47:26;21.90;;;11.57;;
32918;SDS011;19280;42.646;21.150;2022-12-18T07:49:53;19.83;;;11.07;;
32918;SDS011;19280;42.646;21.150;2022-12-18T07:52:19;19.98;;;10.93;;
32918;SDS011;19280;42.646;21.150;2022-12-18T07:54:45;21.77;;;11.27;;
32918;SDS011;19280;42.646;21.150;2022-12-18T07:57:15;21.30;;;11.40;;
32918;SDS011;19280;42.646;21.150;2022-12-18T07:59:41;25.30;;;13.68;;
32918;SDS011;19280;42.646;21.150;2022-12-18T08:02:07;23.90;;;12.07;;
32918;SDS011;19280;42.646;21.150;2022-12-18T08:04:34;21.77;;;11.30;;
32918;SDS011;19280;42.646;21.150;2022-12-18T08:07:00;24.17;;;11.13;;
32918;SDS011;19280;42.646;21.150;2022-12-18T08:09:26;25.33;;;12.25;;
32918;SDS011;19280;42.646;21.150;2022-12-18T08:11:52;21.13;;;11.63;;
32918;SDS011;19280;42.646;21.150;2022-12-18T08:14:19;26.73;;;12.15;;
32918;SDS011;19280;42.646;21.150;2022-12-18T08:16:45;23.33;;;12.20;;
32918;SDS011;19280;42.646;21.150;2022-12-18T08:19:11;24.92;;;12.82;;
32918;SDS011;19280;42.646;21.150;2022-12-18T08:21:37;22.92;;;12.88;;
32918;SDS011;19280;42.646;21.150;2022-12-18T08:24:04;24.80;;;13.90;;
32918;SDS011;19280;42.646;21.150;2022-12-18T08:26:30;20.20;;;11.48;;
32918;SDS011;19280;42.646;21.150;2022-12-18T08:28:57;25.50;;;13.43;;
32918;SDS011;19280;42.646;21.150;2022-12-18T08:31:24;26.90;;;14.15;;
32918;SDS011;19280;42.646;21.150;2022-12-18T08:33:51;25.90;;;13.15;;
32918;SDS011;19280;42.646;21.150;2022-12-18T08:36:17;22.92;;;13.00;;
32918;SDS011;19280;42.646;21.150;2022-12-18T08:38:44;23.30;;;12.98;;
32918;SDS011;19280;42.646;21.150;2022-12-18T08:41:11;24.65;;;13.15;;
32918;SDS011;19280;42.646;21.150;2022-12-18T08:43:37;25.98;;;14.02;;
32918;SDS011;19280;42.646;21.150;2022-12-18T08:46:22;23.08;;;13.48;;
32918;SDS011;19280;42.646;21.150;2022-12-18T08:48:52;25.40;;;13.88;;
32918;SDS011;19280;42.646;21.150;2022-12-18T08:51:20;25.35;;;13.80;;
32918;SDS011;19280;42.646;21.150;2022-12-18T08:53:46;25.58;;;13.60;;
32918;SDS011;19280;42.646;21.150;2022-12-18T08:56:12;22.30;;;13.13;;
32918;SDS011;19280;42.646;21.150;2022-12-18T08:58:39;27.00;;;14.00;;
32918;SDS011;19280;42.646;21.150;2022-12-18T09:01:06;21.48;;;12.13;;
32918;SDS011;19280;42.646;21.150;2022-12-18T09:03:34;25.50;;;12.82;;
32918;SDS011;19280;42.646;21.150;2022-12-18T09:06:00;23.50;;;12.82;;
32918;SDS011;19280;42.646;21.150;2022-12-18T09:08:26;23.75;;;12.77;;
32918;SDS011;19280;42.646;21.150;2022-12-18T09:10:52;24.38;;;13.02;;
32918;SDS011;19280;42.646;21.150;2022-12-18T09:13:19;23.20;;;12.57;;
32918;SDS011;19280;42.646;21.150;2022-12-18T09:15:47;23.67;;;13.27;;
32918;SDS011;19280;42.646;21.150;2022-12-18T09:18:14;23.45;;;12.95;;
32918;SDS011;19280;42.646;21.150;2022-12-18T09:20:40;21.15;;;11.55;;
32918;SDS011;19280;42.646;21.150;2022-12-18T09:23:07;22.77;;;12.45;;
32918;SDS011;19280;42.646;21.150;2022-12-18T09:25:34;25.00;;;13.13;;
32918;SDS011;19280;42.646;21.150;2022-12-18T09:28:04;21.17;;;12.50;;
32918;SDS011;19280;42.646;21.150;2022-12-18T09:30:30;18.25;;;9.90;;
32918;SDS011;19280;42.646;21.150;2022-12-18T09:32:59;23.35;;;12.45;;
32918;SDS011;19280;42.646;21.150;2022-12-18T09:35:25;25.08;;;13.73;;
32918;SDS011;19280;42.646;21.150;2022-12-18T09:37:52;24.33;;;13.65;;
32918;SDS011;19280;42.646;21.150;2022-12-18T09:40:20;27.45;;;14.40;;
32918;SDS011;19280;42.646;21.150;2022-12-18T09:42:48;26.25;;;11.43;;
32918;SDS011;19280;42.646;21.150;2022-12-18T09:45:16;26.67;;;13.57;;
32918;SDS011;19280;42.646;21.150;2022-12-18T09:47:43;27.13;;;14.35;;
32918;SDS011;19280;42.646;21.150;2022-12-18T09:50:24;27.75;;;14.13;;
32918;SDS011;19280;42.646;21.150;2022-12-18T09:52:53;28.42;;;14.98;;
32918;SDS011;19280;42.646;21.150;2022-12-18T09:55:23;31.90;;;16.33;;
32918;SDS011;19280;42.646;21.150;2022-12-18T09:58:05;31.45;;;15.85;;
32918;SDS011;19280;42.646;21.150;2022-12-18T10:00:32;28.17;;;15.68;;
32918;SDS011;19280;42.646;21.150;2022-12-18T10:02:59;30.40;;;16.45;;
32918;SDS011;19280;42.646;21.150;2022-12-18T10:13:02;24.25;;;12.25;;
32918;SDS011;19280;42.646;21.150;2022-12-18T10:18:21;23.17;;;12.13;;
32918;SDS011;19280;42.646;21.150;2022-12-18T10:21:00;22.90;;;12.13;;
32918;SDS011;19280;42.646;21.150;2022-12-18T10:23:31;20.65;;;10.98;;
32918;SDS011;19280;42.646;21.150;2022-12-18T10:26:06;20.05;;;11.10;;
32918;SDS011;19280;42.646;21.150;2022-12-18T10:28:34;25.50;;;11.57;;
32918;SDS011;19280;42.646;21.150;2022-12-18T10:31:01;19.15;;;9.93;;
32918;SDS011;19280;42.646;21.150;2022-12-18T10:33:30;20.65;;;10.15;;
32918;SDS011;19280;42.646;21.150;2022-12-18T10:35:57;20.55;;;10.20;;
32918;SDS011;19280;42.646;21.150;2022-12-18T10:38:25;21.08;;;10.77;;
32918;SDS011;19280;42.646;21.150;2022-12-18T10:40:59;23.08;;;11.77;;
32918;SDS011;19280;42.646;21.150;2022-12-18T10:43:30;20.73;;;10.32;;
32918;SDS011;19280;42.646;21.150;2022-12-18T10:51:07;20.02;;;11.18;;
32918;SDS011;19280;42.646;21.150;2022-12-18T10:53:34;20.15;;;7.90;;
32918;SDS011;19280;42.646;21.150;2022-12-18T10:56:01;13.60;;;7.35;;
32918;SDS011;19280;42.646;21.150;2022-12-18T10:58:29;17.33;;;9.45;;
32918;SDS011;19280;42.646;21.150;2022-12-18T11:01:10;16.60;;;8.55;;
32918;SDS011;19280;42.646;21.150;2022-12-18T11:03:44;15.75;;;8.48;;
32918;SDS011;19280;42.646;21.150;2022-12-18T11:06:12;18.75;;;9.80;;
32918;SDS011;19280;42.646;21.150;2022-12-18T11:08:39;15.27;;;6.85;;
32918;SDS011;19280;42.646;21.150;2022-12-18T11:11:07;19.80;;;10.10;;
32918;SDS011;19280;42.646;21.150;2022-12-18T11:13:41;21.30;;;11.27;;
32918;SDS011;19280;42.646;21.150;2022-12-18T11:16:18;23.13;;;10.82;;
32918;SDS011;19280;42.646;21.150;2022-12-18T11:18:45;20.85;;;10.63;;
32918;SDS011;19280;42.646;21.150;2022-12-18T11:21:11;24.40;;;11.13;;
32918;SDS011;19280;42.646;21.150;2022-12-18T11:23:45;23.23;;;12.52;;
32918;SDS011;19280;42.646;21.150;2022-12-18T11:26:12;25.75;;;14.05;;
32918;SDS011;19280;42.646;21.150;2022-12-18T11:31:41;21.40;;;10.70;;
32918;SDS011;19280;42.646;21.150;2022-12-18T11:34:16;26.08;;;12.88;;
32918;SDS011;19280;42.646;21.150;2022-12-18T11:36:46;31.55;;;13.27;;
32918;SDS011;19280;42.646;21.150;2022-12-18T11:39:35;30.65;;;13.80;;
32918;SDS011;19280;42.646;21.150;2022-12-18T11:42:01;23.20;;;12.88;;
32918;SDS011;19280;42.646;21.150;2022-12-18T11:44:49;23.35;;;11.65;;
32918;SDS011;19280;42.646;21.150;2022-12-18T11:49:45;20.00;;;11.02;;
32918;SDS011;19280;42.646;21.150;2022-12-18T11:54:40;22.35;;;11.38;;
32918;SDS011;19280;42.646;21.150;2022-12-18T11:57:18;22.30;;;11.30;;
32918;SDS011;19280;42.646;21.150;2022-12-18T12:07:46;25.92;;;12.95;;
32918;SDS011;19280;42.646;21.150;2022-12-18T12:12:57;91.00;;;61.53;;
32918;SDS011;19280;42.646;21.150;2022-12-18T12:20:51;25.50;;;11.98;;
32918;SDS011;19280;42.646;21.150;2022-12-18T12:25:46;21.92;;;12.38;;
32918;SDS011;19280;42.646;21.150;2022-12-18T12:38:42;22.65;;;12.05;;
32918;SDS011;19280;42.646;21.150;2022-12-18T12:41:09;32.13;;;12.60;;
32918;SDS011;19280;42.646;21.150;2022-12-18T12:43:57;17.50;;;8.98;;
32918;SDS011;19280;42.646;21.150;2022-12-18T12:46:24;23.02;;;11.13;;
32918;SDS011;19280;42.646;21.150;2022-12-18T12:48:52;26.17;;;10.25;;
32918;SDS011;19280;42.646;21.150;2022-12-18T12:51:32;23.60;;;13.32;;
32918;SDS011;19280;42.646;21.150;2022-12-18T12:53:59;23.10;;;12.98;;
32918;SDS011;19280;42.646;21.150;2022-12-18T12:56:44;22.58;;;11.00;;
32918;SDS011;19280;42.646;21.150;2022-12-18T13:04:47;19.35;;;8.82;;
32918;SDS011;19280;42.646;21.150;2022-12-18T13:15:42;14.70;;;7.68;;
32918;SDS011;19280;42.646;21.150;2022-12-18T13:20:35;24.23;;;10.35;;
32918;SDS011;19280;42.646;21.150;2022-12-18T13:25:47;22.98;;;10.52;;
32918;SDS011;19280;42.646;21.150;2022-12-18T13:28:14;32.65;;;15.32;;
32918;SDS011;19280;42.646;21.150;2022-12-18T13:35:51;32.88;;;15.80;;
32918;SDS011;19280;42.646;21.150;2022-12-18T13:41:25;34.30;;;17.58;;
32918;SDS011;19280;42.646;21.150;2022-12-18T13:43:52;33.30;;;17.00;;
32918;SDS011;19280;42.646;21.150;2022-12-18T13:46:29;33.95;;;16.38;;
32918;SDS011;19280;42.646;21.150;2022-12-18T13:49:00;31.85;;;15.55;;
32918;SDS011;19280;42.646;21.150;2022-12-18T13:56:24;29.98;;;16.58;;
32918;SDS011;19280;42.646;21.150;2022-12-18T14:01:31;32.57;;;18.10;;
32918;SDS011;19280;42.646;21.150;2022-12-18T14:06:42;35.53;;;18.63;;
32918;SDS011;19280;42.646;21.150;2022-12-18T14:09:12;34.40;;;17.25;;
32918;SDS011;19280;42.646;21.150;2022-12-18T14:11:39;43.88;;;21.55;;
32918;SDS011;19280;42.646;21.150;2022-12-18T14:14:05;39.00;;;18.67;;
32918;SDS011;19280;42.646;21.150;2022-12-18T14:16:32;32.05;;;16.60;;
32918;SDS011;19280;42.646;21.150;2022-12-18T14:18:59;27.35;;;13.75;;
32918;SDS011;19280;42.646;21.150;2022-12-18T14:21:27;22.92;;;11.90;;
32918;SDS011;19280;42.646;21.150;2022-12-18T14:24:13;27.63;;;13.02;;
32918;SDS011;19280;42.646;21.150;2022-12-18T14:26:40;30.48;;;15.07;;
32918;SDS011;19280;42.646;21.150;2022-12-18T14:31:44;36.33;;;15.55;;
32918;SDS011;19280;42.646;21.150;2022-12-18T14:34:17;22.15;;;12.38;;
32918;SDS011;19280;42.646;21.150;2022-12-18T14:36:53;26.85;;;13.20;;
32918;SDS011;19280;42.646;21.150;2022-12-18T14:39:21;23.13;;;12.45;;
32918;SDS011;19280;42.646;21.150;2022-12-18T14:41:50;26.92;;;12.57;;
32918;SDS011;19280;42.646;21.150;2022-12-18T14:44:17;25.48;;;13.88;;
32918;SDS011;19280;42.646;21.150;2022-12-18T14:46:43;30.63;;;15.07;;
32918;SDS011;19280;42.646;21.150;2022-12-18T14:51:53;27.60;;;13.93;;
32918;SDS011;19280;42.646;21.150;2022-12-18T14:54:19;28.55;;;13.38;;
32918;SDS011;19280;42.646;21.150;2022-12-18T14:56:47;32.80;;;16.27;;
32918;SDS011;19280;42.646;21.150;2022-12-18T15:04:24;39.13;;;18.95;;
32918;SDS011;19280;42.646;21.150;2022-12-18T15:07:02;38.90;;;17.02;;
32918;SDS011;19280;42.646;21.150;2022-12-18T15:09:28;39.38;;;17.85;;
32918;SDS011;19280;42.646;21.150;2022-12-18T15:11:56;41.25;;;20.27;;
32918;SDS011;19280;42.646;21.150;2022-12-18T15:19:21;37.60;;;17.75;;
32918;SDS011;19280;42.646;21.150;2022-12-18T15:21:48;34.67;;;16.52;;
32918;SDS011;19280;42.646;21.150;2022-12-18T15:24:18;35.72;;;17.58;;
32918;SDS011;19280;42.646;21.150;2022-12-18T15:26:44;38.10;;;20.25;;
32918;SDS011;19280;42.646;21.150;2022-12-18T15:29:20;49.25;;;23.60;;
32918;SDS011;19280;42.646;21.150;2022-12-18T15:32:03;40.45;;;19.58;;
32918;SDS011;19280;42.646;21.150;2022-12-18T15:34:30;41.03;;;19.48;;
32918;SDS011;19280;42.646;21.150;2022-12-18T15:36:57;43.05;;;20.60;;
32918;SDS011;19280;42.646;21.150;2022-12-18T15:39:23;38.13;;;19.48;;
32918;SDS011;19280;42.646;21.150;2022-12-18T15:41:49;35.28;;;17.23;;
32918;SDS011;19280;42.646;21.150;2022-12-18T15:44:34;39.22;;;18.73;;
32918;SDS011;19280;42.646;21.150;2022-12-18T15:47:00;39.35;;;19.33;;
32918;SDS011;19280;42.646;21.150;2022-12-18T15:49:26;39.33;;;20.45;;
32918;SDS011;19280;42.646;21.150;2022-12-18T15:51:53;44.97;;;21.88;;
32918;SDS011;19280;42.646;21.150;2022-12-18T15:54:20;42.13;;;21.17;;
32918;SDS011;19280;42.646;21.150;2022-12-18T15:57:10;39.08;;;20.30;;
32918;SDS011;19280;42.646;21.150;2022-12-18T15:59:49;36.60;;;19.75;;
32918;SDS011;19280;42.646;21.150;2022-12-18T16:02:16;38.97;;;20.50;;
32918;SDS011;19280;42.646;21.150;2022-12-18T16:04:43;51.05;;;24.67;;
32918;SDS011;19280;42.646;21.150;2022-12-18T16:07:10;43.30;;;22.65;;
32918;SDS011;19280;42.646;21.150;2022-12-18T16:09:37;42.60;;;22.40;;
32918;SDS011;19280;42.646;21.150;2022-12-18T16:12:04;45.58;;;23.20;;
32918;SDS011;19280;42.646;21.150;2022-12-18T16:14:31;48.95;;;25.45;;
32918;SDS011;19280;42.646;21.150;2022-12-18T16:17:01;47.55;;;24.63;;
32918;SDS011;19280;42.646;21.150;2022-12-18T16:19:27;64.90;;;28.42;;
32918;SDS011;19280;42.646;21.150;2022-12-18T16:21:55;47.75;;;24.27;;
32918;SDS011;19280;42.646;21.150;2022-12-18T16:24:22;45.08;;;22.27;;
32918;SDS011;19280;42.646;21.150;2022-12-18T16:26:49;38.35;;;19.88;;
32918;SDS011;19280;42.646;21.150;2022-12-18T16:29:19;45.47;;;20.70;;
32918;SDS011;19280;42.646;21.150;2022-12-18T16:31:49;46.10;;;21.52;;
32918;SDS011;19280;42.646;21.150;2022-12-18T16:34:19;39.22;;;20.55;;
32918;SDS011;19280;42.646;21.150;2022-12-18T16:36:47;44.60;;;21.60;;
32918;SDS011;19280;42.646;21.150;2022-12-18T16:39:14;42.45;;;20.63;;
32918;SDS011;19280;42.646;21.150;2022-12-18T16:41:40;40.05;;;20.95;;
32918;SDS011;19280;42.646;21.150;2022-12-18T16:44:06;47.28;;;21.98;;
32918;SDS011;19280;42.646;21.150;2022-12-18T16:46:32;43.25;;;21.95;;
32918;SDS011;19280;42.646;21.150;2022-12-18T16:48:58;47.30;;;23.17;;